Time;durP1;ratioP1;P1;durP2;ratioP2;P2;SDS_P1;SDS_P2;PMS_P1;PMS_P2;Temp;Humidity;BMP_temperature;BMP_pressure;BME280_temperature;BME280_humidity;BME280_pressure;Samples;Min_cycle;Max_cycle;Signal;HPM_P1;HPM_P2
2022/06/01 00:02:25;;;;;;;4.08;2.17;;;;;;;13.52;71.64;99986.10;2256909;77;21072;-73
2022/06/01 00:05:27;;;;;;;2.08;1.87;;;;;;;13.48;72.26;99990.66;2247005;77;21002;-69
2022/06/01 00:08:28;;;;;;;9.05;2.58;;;;;;;13.44;72.27;99981.70;2253542;77;20962;-68
2022/06/01 00:11:31;;;;;;;2.22;2.00;;;;;;;13.43;72.43;99982.73;2247422;77;20911;-69
2022/06/01 00:14:33;;;;;;;4.62;2.00;;;;;;;13.42;72.66;99987.72;2247186;77;20990;-67
2022/06/01 00:17:34;;;;;;;2.30;2.10;;;;;;;13.39;73.01;99989.95;2238671;77;20993;-68
2022/06/01 00:20:36;;;;;;;2.90;2.20;;;;;;;13.35;73.82;99986.84;2246234;77;21001;-67
2022/06/01 00:23:37;;;;;;;2.30;1.90;;;;;;;13.30;73.67;99984.42;2247603;77;20974;-68
2022/06/01 00:26:38;;;;;;;2.27;1.98;;;;;;;13.27;73.63;99981.62;2244544;77;20907;-68
2022/06/01 00:29:40;;;;;;;2.50;2.30;;;;;;;13.23;73.89;99982.96;2249069;77;20985;-68
2022/06/01 00:32:41;;;;;;;5.53;2.37;;;;;;;13.20;73.99;99979.34;2249151;77;21057;-67
2022/06/01 00:35:42;;;;;;;7.00;2.83;;;;;;;13.18;74.03;99980.88;2243903;77;21049;-68
2022/06/01 00:38:44;;;;;;;4.78;2.33;;;;;;;13.19;74.27;99988.36;2252393;77;20931;-67
2022/06/01 00:41:47;;;;;;;4.90;2.70;;;;;;;13.17;74.65;99972.55;2247450;77;21020;-73
2022/06/01 00:44:49;;;;;;;4.10;2.75;;;;;;;13.15;75.01;99977.26;2241806;77;21457;-71
2022/06/01 00:47:51;;;;;;;3.30;2.67;;;;;;;13.11;74.99;99979.95;2248478;77;20964;-68
2022/06/01 00:50:54;;;;;;;2.87;2.05;;;;;;;13.08;75.14;99979.52;2248048;77;20993;-68
2022/06/01 00:53:58;;;;;;;3.33;2.35;;;;;;;13.04;75.35;99972.92;2251379;77;20927;-73
2022/06/01 00:57:04;;;;;;;2.75;2.27;;;;;;;13.02;75.30;99973.09;2252254;77;22128;-69
2022/06/01 01:00:20;;;;;;;5.47;2.10;;;;;;;13.02;75.48;99967.77;2242628;77;21037;-68
2022/06/01 01:03:26;;;;;;;4.70;2.35;;;;;;;13.03;76.76;99969.41;2245483;78;21080;-68
2022/06/01 01:06:35;;;;;;;2.20;2.00;;;;;;;13.03;75.78;99981.91;2244784;78;21034;-69
2022/06/01 01:09:36;;;;;;;3.27;1.90;;;;;;;13.02;75.86;99991.73;2212346;78;21014;-67
2022/06/01 01:12:57;;;;;;;2.65;2.45;;;;;;;13.02;75.89;99985.08;2250536;78;20958;-69
2022/06/01 01:15:59;;;;;;;2.40;2.20;;;;;;;13.03;75.95;99973.41;2251788;78;20950;-67
2022/06/01 01:19:01;;;;;;;2.15;1.90;;;;;;;13.05;76.37;99973.23;2248827;78;21059;-67
2022/06/01 01:22:26;;;;;;;2.60;2.27;;;;;;;13.03;76.15;99967.25;2241873;78;21048;-67
2022/06/01 01:25:33;;;;;;;2.55;2.35;;;;;;;13.01;76.13;99962.95;2245167;78;21024;-68
2022/06/01 01:28:34;;;;;;;3.65;2.40;;;;;;;13.04;76.21;99967.59;2242113;78;21092;-66
2022/06/01 01:31:39;;;;;;;2.45;2.25;;;;;;;13.08;76.25;99960.87;2239857;78;20953;-68
2022/06/01 01:34:43;;;;;;;4.08;2.40;;;;;;;13.10;76.30;99956.19;2245869;78;21659;-70
2022/06/01 01:37:47;;;;;;;2.25;2.05;;;;;;;13.11;76.36;99951.17;2187567;80;21063;-66
2022/06/01 01:41:15;;;;;;;3.52;2.30;;;;;;;13.08;76.43;99934.23;2244041;78;20982;-67
2022/06/01 01:44:34;;;;;;;14.40;2.95;;;;;;;13.07;76.47;99933.41;2240491;78;21068;-68
2022/06/01 01:47:37;;;;;;;2.67;2.15;;;;;;;13.10;76.78;99921.05;2241134;78;21507;-70
2022/06/01 01:50:38;;;;;;;2.25;2.05;;;;;;;13.03;77.11;99915.32;2246238;78;20942;-70
2022/06/01 01:53:39;;;;;;;3.70;2.77;;;;;;;12.94;77.23;99915.42;2249209;78;20947;-67
2022/06/01 01:57:05;;;;;;;2.87;2.40;;;;;;;12.88;77.42;99917.51;2249279;78;21639;-68
2022/06/01 02:00:24;;;;;;;3.52;2.40;;;;;;;12.85;77.72;99915.73;2250577;78;21009;-67
2022/06/01 02:03:37;;;;;;;2.60;2.40;;;;;;;12.76;79.23;99907.03;2255163;78;21040;-67
2022/06/01 02:06:43;;;;;;;3.05;2.12;;;;;;;12.64;79.57;99880.06;2247524;78;20982;-66
2022/06/01 02:13:06;;;;;;;3.17;2.87;;;;;;;12.48;81.35;99881.59;2252467;78;21021;-68
2022/06/01 02:16:08;;;;;;;4.17;2.92;;;;;;;12.44;81.58;99881.63;2251019;78;20998;-67
2022/06/01 02:19:14;;;;;;;3.65;3.10;;;;;;;12.42;81.82;99874.35;2246542;78;21001;-68
2022/06/01 02:22:16;;;;;;;5.45;3.50;;;;;;;12.41;81.97;99882.81;2243100;78;21036;-68
2022/06/01 02:25:19;;;;;;;6.22;3.30;;;;;;;12.41;81.28;99885.98;2245758;78;20997;-66
2022/06/01 02:28:21;;;;;;;5.17;3.20;;;;;;;12.43;81.80;99870.67;2251864;78;21353;-67
2022/06/01 02:31:24;;;;;;;3.02;2.70;;;;;;;12.41;82.81;99852.73;2250261;78;22586;-66
2022/06/01 02:34:27;;;;;;;3.85;2.95;;;;;;;12.38;83.54;99852.59;2249832;78;21503;-67
2022/06/01 02:37:31;;;;;;;3.85;2.95;;;;;;;12.38;83.59;99834.47;2247974;78;20985;-67
2022/06/01 02:40:33;;;;;;;5.37;3.20;;;;;;;12.36;83.92;99843.98;2250745;78;21001;-67
2022/06/01 02:43:49;;;;;;;4.47;2.65;;;;;;;12.34;82.78;99846.82;2251959;78;20951;-67
2022/06/01 02:46:50;;;;;;;3.85;2.40;;;;;;;12.36;82.98;99847.98;2249554;78;20982;-67
2022/06/01 02:49:53;;;;;;;2.98;2.67;;;;;;;12.35;83.24;99843.65;2252367;78;20985;-67
2022/06/01 02:52:55;;;;;;;3.98;2.72;;;;;;;12.34;83.07;99832.70;2250789;78;20946;-67
2022/06/01 02:55:57;;;;;;;3.22;2.77;;;;;;;12.33;82.83;99843.00;2247474;78;21025;-69
2022/06/01 02:58:58;;;;;;;3.33;3.02;;;;;;;12.32;82.48;99836.04;2252895;78;20976;-66
2022/06/01 03:01:59;;;;;;;3.20;2.87;;;;;;;12.30;82.27;99830.92;2253646;78;21002;-67
2022/06/01 03:05:00;;;;;;;3.75;3.17;;;;;;;12.32;82.09;99828.06;2249430;78;20981;-68
2022/06/01 03:08:03;;;;;;;2.92;2.60;;;;;;;12.30;81.98;99826.08;2247214;78;21060;-67
2022/06/01 03:11:05;;;;;;;4.70;2.92;;;;;;;12.29;81.78;99839.07;2251929;78;21021;-68
2022/06/01 03:14:06;;;;;;;5.40;3.00;;;;;;;12.27;81.47;99841.08;2247628;78;20994;-67
2022/06/01 03:17:08;;;;;;;3.95;2.80;;;;;;;12.23;81.67;99835.31;2247448;78;20938;-67
2022/06/01 03:20:13;;;;;;;4.40;2.92;;;;;;;12.20;81.73;99833.02;2246932;78;21427;-67
2022/06/01 03:23:15;;;;;;;3.83;3.02;;;;;;;12.19;81.62;99832.72;2248212;78;21037;-70
2022/06/01 03:26:19;;;;;;;5.37;2.40;;;;;;;12.21;81.29;99837.32;2248179;78;20986;-66
2022/06/01 03:29:20;;;;;;;2.42;2.22;;;;;;;12.17;81.29;99827.25;2178081;80;21022;-68
2022/06/01 03:32:22;;;;;;;2.67;2.47;;;;;;;12.17;81.38;99832.58;2158947;81;21088;-68
2022/06/01 03:35:28;;;;;;;2.95;2.58;;;;;;;12.16;81.52;99829.58;2246816;78;21048;-69
2022/06/01 03:38:29;;;;;;;3.90;2.60;;;;;;;12.12;82.03;99833.11;2251577;78;21048;-68
2022/06/01 03:41:33;;;;;;;2.92;2.72;;;;;;;12.10;81.54;99835.94;2249799;78;21437;-68
2022/06/01 03:47:55;;;;;;;3.87;3.00;;;;;;;12.13;81.41;99832.61;2251203;78;20950;-69
2022/06/01 03:50:58;;;;;;;2.62;2.42;;;;;;;12.49;82.06;99845.47;2249183;78;20963;-68
2022/06/01 03:54:01;;;;;;;2.27;2.10;;;;;;;13.11;82.08;99845.95;2245719;78;21033;-73
2022/06/01 03:57:10;;;;;;;2.27;2.10;;;;;;;13.68;81.56;99825.05;2250875;78;21477;-67
2022/06/01 04:00:21;;;;;;;2.65;2.20;;;;;;;14.25;81.07;99831.17;2246624;78;21097;-68
2022/06/01 04:03:22;;;;;;;2.40;2.20;;;;;;;14.78;80.41;99834.91;2246329;78;21460;-70
2022/06/01 04:06:23;;;;;;;2.30;2.10;;;;;;;15.30;79.68;99835.20;2251304;78;21049;-67
2022/06/01 04:09:25;;;;;;;2.15;2.05;;;;;;;15.75;78.68;99838.63;2247704;78;20969;-68
2022/06/01 04:12:26;;;;;;;3.20;1.87;;;;;;;16.24;78.37;99838.63;2249738;78;21053;-68
2022/06/01 04:15:28;;;;;;;2.65;2.20;;;;;;;16.76;77.41;99847.02;2246849;78;21471;-68
2022/06/01 04:18:29;;;;;;;2.08;1.90;;;;;;;17.20;76.01;99847.16;2252325;78;21589;-69
2022/06/01 04:21:35;;;;;;;2.08;1.85;;;;;;;17.61;75.37;99844.50;2249631;78;20926;-67
2022/06/01 04:24:37;;;;;;;1.98;1.87;;;;;;;17.84;74.11;99851.43;2251528;78;20950;-67
2022/06/01 04:27:42;;;;;;;1.90;1.75;;;;;;;18.05;73.10;99846.19;2251092;78;21059;-69
2022/06/01 04:30:42;;;;;;;2.62;1.87;;;;;;;18.33;72.80;99855.08;2252770;78;21432;-70
2022/06/01 04:33:43;;;;;;;3.42;1.80;;;;;;;18.54;71.59;99850.28;2246151;78;21081;-67
2022/06/01 04:36:44;;;;;;;1.60;1.50;;;;;;;18.65;71.41;99844.16;2252091;78;20950;-69
2022/06/01 04:39:46;;;;;;;1.87;1.72;;;;;;;19.00;71.04;99846.19;2246425;78;21463;-68
2022/06/01 04:42:47;;;;;;;2.20;1.72;;;;;;;19.38;70.51;99839.64;2254128;78;20989;-71
2022/06/01 04:45:53;;;;;;;2.77;2.00;;;;;;;19.61;69.36;99849.08;2249753;78;20970;-69
2022/06/01 04:48:55;;;;;;;2.12;1.40;;;;;;;19.99;69.18;99851.05;2250383;78;21005;-67
2022/06/01 04:51:56;;;;;;;2.20;2.00;;;;;;;20.15;68.05;99851.69;2245712;78;20961;-68
2022/06/01 04:54:57;;;;;;;2.20;1.70;;;;;;;20.51;67.73;99860.00;2249807;78;21009;-70
2022/06/01 04:57:59;;;;;;;1.42;1.32;;;;;;;20.87;67.12;99853.19;2248765;78;21012;-71
2022/06/01 05:01:00;;;;;;;1.82;1.37;;;;;;;21.15;66.42;99848.31;2253017;77;21071;-71
2022/06/01 05:04:02;;;;;;;1.57;1.47;;;;;;;21.29;65.04;99850.98;2253740;77;20967;-72
2022/06/01 05:07:04;;;;;;;1.50;1.17;;;;;;;21.50;64.48;99850.81;2250200;77;21008;-70
2022/06/01 05:10:06;;;;;;;1.30;1.15;;;;;;;21.66;64.08;99851.89;2249745;77;20939;-74
2022/06/01 05:13:08;;;;;;;2.22;1.25;;;;;;;21.79;63.72;99856.93;2245806;77;20977;-70
2022/06/01 05:16:10;;;;;;;1.40;1.30;;;;;;;22.11;63.07;99853.09;2248648;77;21001;-72
2022/06/01 05:19:13;;;;;;;2.25;1.65;;;;;;;22.42;62.39;99851.37;2248059;77;21037;-71
2022/06/01 05:22:14;;;;;;;2.55;1.35;;;;;;;22.63;61.95;99862.70;2253295;77;22345;-72
2022/06/01 05:25:16;;;;;;;1.77;1.40;;;;;;;22.89;60.42;99876.51;2248656;77;21037;-68
2022/06/01 05:28:23;;;;;;;1.62;1.40;;;;;;;22.96;60.02;99879.87;2250135;77;21049;-68
2022/06/01 05:31:26;;;;;;;1.60;1.50;;;;;;;22.95;58.82;99874.17;2249209;77;21014;-70
2022/06/01 05:34:27;;;;;;;4.08;1.60;;;;;;;22.82;58.23;99876.17;2257245;77;20907;-68
2022/06/01 05:37:28;;;;;;;1.82;1.45;;;;;;;22.85;58.72;99879.45;2246493;77;21552;-69
2022/06/01 05:40:30;;;;;;;1.82;1.70;;;;;;;22.91;57.90;99887.91;2253530;77;21533;-68
2022/06/01 05:43:33;;;;;;;2.33;1.80;;;;;;;22.78;57.76;99891.29;2251233;77;21543;-71
2022/06/01 05:46:38;;;;;;;4.42;1.90;;;;;;;23.01;57.56;99887.52;2252432;77;22235;-68
2022/06/01 05:49:39;;;;;;;3.22;2.15;;;;;;;23.11;56.11;99890.03;2246969;77;20961;-69
2022/06/01 05:52:40;;;;;;;1.72;1.60;;;;;;;22.97;56.57;99891.78;2249446;77;20958;-69
2022/06/01 05:55:42;;;;;;;3.58;1.90;;;;;;;23.07;55.90;99901.91;2252685;77;20981;-68
2022/06/01 05:58:45;;;;;;;1.85;1.70;;;;;;;22.93;55.68;99908.77;2249928;77;21559;-69
2022/06/01 06:01:47;;;;;;;4.95;2.10;;;;;;;22.99;55.08;99907.23;2255550;77;21625;-68
2022/06/01 06:04:48;;;;;;;3.33;1.90;;;;;;;22.77;55.38;99919.38;2246218;77;21519;-68
2022/06/01 06:07:49;;;;;;;4.65;2.20;;;;;;;22.72;54.43;99915.80;2257232;77;21487;-68
2022/06/01 06:10:50;;;;;;;2.08;1.98;;;;;;;22.46;54.75;99926.28;2251845;77;21140;-69
2022/06/01 06:13:51;;;;;;;2.55;1.77;;;;;;;22.56;54.36;99925.63;2252212;77;20969;-68
2022/06/01 06:16:52;;;;;;;2.52;2.10;;;;;;;22.77;54.42;99928.85;2252785;77;21060;-70
2022/06/01 06:19:53;;;;;;;2.12;1.92;;;;;;;22.78;53.82;99931.05;2248124;77;21020;-69
2022/06/01 06:22:54;;;;;;;3.60;2.58;;;;;;;22.88;54.07;99933.85;2252686;77;21436;-69
2022/06/01 06:25:56;;;;;;;13.05;2.10;;;;;;;23.10;53.72;99930.36;2248411;77;21441;-70
2022/06/01 06:29:02;;;;;;;2.45;1.62;;;;;;;23.21;52.76;99928.04;2255765;77;20988;-69
2022/06/01 06:32:05;;;;;;;3.30;1.60;;;;;;;23.08;51.84;99934.66;2250977;77;21507;-69
2022/06/01 06:35:09;;;;;;;3.77;1.50;;;;;;;22.99;51.24;99928.88;2248606;77;21018;-69
2022/06/01 06:38:11;;;;;;;2.35;1.80;;;;;;;23.11;51.26;99931.44;2250084;77;21550;-72
2022/06/01 06:41:12;;;;;;;3.58;1.70;;;;;;;23.18;51.10;99927.20;2249881;77;21421;-69
2022/06/01 06:44:13;;;;;;;2.12;1.70;;;;;;;23.39;49.85;99926.86;2249448;77;21080;-68
2022/06/01 06:47:14;;;;;;;2.87;1.55;;;;;;;23.19;49.68;99930.98;2247598;77;20993;-69
2022/06/01 06:50:18;;;;;;;2.02;1.55;;;;;;;23.39;50.17;99935.79;2252617;77;21033;-69
2022/06/01 06:53:19;;;;;;;4.25;1.77;;;;;;;23.57;49.45;99938.69;2250304;77;21502;-69
2022/06/01 06:56:22;;;;;;;3.25;1.95;;;;;;;23.77;48.73;99934.56;2252066;77;21753;-69
2022/06/01 06:59:23;;;;;;;2.92;2.55;;;;;;;23.68;48.40;99933.64;2254135;77;20954;-68
2022/06/01 07:02:25;;;;;;;3.77;2.17;;;;;;;23.34;47.19;99929.00;2251715;77;21040;-68
2022/06/01 07:08:50;;;;;;;2.70;2.10;;;;;;;23.46;48.12;99930.19;2243160;78;21025;-68
2022/06/01 07:11:52;;;;;;;3.40;2.40;;;;;;;23.50;47.39;99932.66;2238998;78;20958;-68
2022/06/01 07:14:53;;;;;;;4.28;2.20;;;;;;;23.48;47.35;99938.34;2246814;78;20945;-68
2022/06/01 07:17:54;;;;;;;5.03;2.50;;;;;;;23.59;46.83;99938.41;2242810;78;21005;-68
2022/06/01 07:20:55;;;;;;;2.67;2.33;;;;;;;23.53;47.09;99938.09;2247860;78;20994;-68
2022/06/01 07:23:56;;;;;;;6.53;2.40;;;;;;;23.83;47.60;99945.16;2245847;78;21008;-68
2022/06/01 07:26:58;;;;;;;3.92;2.72;;;;;;;24.18;47.32;99948.40;2244468;78;21005;-68
2022/06/01 07:30:00;;;;;;;3.47;2.40;;;;;;;24.33;46.58;99944.45;2249038;78;21512;-68
2022/06/01 07:33:01;;;;;;;4.33;2.20;;;;;;;24.31;46.46;99943.89;2241818;78;20974;-69
2022/06/01 07:36:07;;;;;;;5.03;2.45;;;;;;;24.16;45.68;99941.36;2245576;77;21026;-68
2022/06/01 07:45:50;;;;;;;4.53;2.20;;;;;;;23.33;45.02;99940.87;2240123;78;21540;-68
2022/06/01 07:48:53;;;;;;;2.87;2.50;;;;;;;23.42;44.90;99948.00;2241617;77;21031;-70
2022/06/01 07:51:55;;;;;;;4.47;2.30;;;;;;;23.10;45.08;99946.05;2241293;78;21013;-68
2022/06/01 07:54:56;;;;;;;3.17;2.87;;;;;;;23.08;45.63;99940.61;2249105;77;21023;-66
2022/06/01 07:57:58;;;;;;;3.17;2.35;;;;;;;23.07;46.06;99947.10;2245623;78;20915;-67
2022/06/01 08:00:59;;;;;;;4.47;2.50;;;;;;;23.09;45.42;99948.48;2243146;77;21061;-68
2022/06/01 08:04:03;;;;;;;2.77;2.40;;;;;;;23.18;45.14;99946.95;2248782;78;21007;-67
2022/06/01 08:07:05;;;;;;;2.95;2.60;;;;;;;23.39;45.35;99949.87;2245393;78;21564;-67
2022/06/01 08:10:09;;;;;;;3.42;2.42;;;;;;;23.56;44.78;99946.52;2241878;78;20989;-67
2022/06/01 08:13:15;;;;;;;3.75;2.30;;;;;;;23.37;44.68;99953.36;2248307;78;21014;-72
2022/06/01 08:16:17;;;;;;;5.28;2.60;;;;;;;23.41;44.67;99946.38;2241052;78;21080;-67
2022/06/01 08:19:19;;;;;;;2.47;2.27;;;;;;;23.10;44.63;99951.47;2245055;78;20994;-68
2022/06/01 08:22:20;;;;;;;3.25;2.25;;;;;;;22.81;45.02;99965.16;2239722;78;20959;-68
2022/06/01 08:25:23;;;;;;;3.27;2.08;;;;;;;22.20;44.73;99971.05;2238238;78;21077;-68
2022/06/01 08:28:25;;;;;;;4.72;2.98;;;;;;;21.66;45.43;99973.38;2243933;78;20982;-67
2022/06/01 08:31:29;;;;;;;2.62;2.35;;;;;;;21.42;46.42;99978.87;2242399;78;21074;-71
2022/06/01 08:34:31;;;;;;;6.03;2.80;;;;;;;21.75;46.43;99974.61;2240379;78;20974;-67
2022/06/01 08:37:32;;;;;;;2.60;2.40;;;;;;;22.04;46.33;99974.55;2244211;78;21505;-67
2022/06/01 08:40:50;;;;;;;2.65;2.30;;;;;;;22.31;46.13;99980.95;2245033;78;21382;-69
2022/06/01 08:43:55;;;;;;;4.20;2.50;;;;;;;22.27;45.80;99979.83;2233121;78;20971;-67
2022/06/01 08:47:07;;;;;;;3.02;2.25;;;;;;;22.90;45.31;99976.90;2239790;78;21500;-68
2022/06/01 08:50:25;;;;;;;2.87;2.58;;;;;;;23.04;44.12;99977.64;2250901;78;21771;-67
2022/06/01 08:53:27;;;;;;;4.37;2.50;;;;;;;23.06;44.66;99978.76;2244902;78;20986;-68
2022/06/01 08:56:42;;;;;;;3.30;2.70;;;;;;;23.47;44.77;99975.95;2252197;77;21115;-67
2022/06/01 09:00:03;;;;;;;3.58;2.62;;;;;;;24.00;44.98;99976.19;2247597;78;21020;-71
2022/06/01 09:03:21;;;;;;;3.10;2.85;;;;;;;24.42;43.81;99983.55;2251939;77;21465;-68
2022/06/01 09:06:34;;;;;;;5.25;2.90;;;;;;;24.58;43.44;99979.88;2250962;77;21016;-68
2022/06/01 09:09:58;;;;;;;2.70;2.50;;;;;;;24.41;42.85;99976.47;2248825;77;21061;-67
2022/06/01 09:13:09;;;;;;;5.95;2.45;;;;;;;24.39;42.70;99983.52;2230069;77;21587;-72
2022/06/01 09:16:19;;;;;;;3.45;2.00;;;;;;;24.41;42.09;99980.53;2251656;77;20955;-69
2022/06/01 09:19:25;;;;;;;6.00;2.50;;;;;;;24.48;43.04;99975.74;2251549;77;20993;-70
2022/06/01 09:22:38;;;;;;;2.62;2.35;;;;;;;24.71;42.50;99981.84;2249293;77;21538;-68
2022/06/01 09:25:52;;;;;;;3.22;2.50;;;;;;;24.76;42.02;99979.16;2246279;77;21088;-68
2022/06/01 09:28:57;;;;;;;3.15;2.30;;;;;;;24.70;41.45;99975.60;2225717;77;20961;-68
2022/06/01 09:32:06;;;;;;;3.58;2.30;;;;;;;24.81;41.59;99982.70;2255119;77;21032;-68
2022/06/01 09:35:11;;;;;;;3.08;2.27;;;;;;;24.97;40.78;99974.62;2252802;77;20962;-67
2022/06/01 09:38:42;;;;;;;3.67;2.52;;;;;;;24.94;41.07;99988.17;2253510;77;21018;-67
2022/06/01 09:41:43;;;;;;;3.25;2.10;;;;;;;24.51;40.47;99982.55;2249783;77;21012;-69
2022/06/01 09:44:49;;;;;;;1.77;1.47;;;;;;;24.52;40.50;99976.84;2246936;77;21040;-67
2022/06/01 09:47:52;;;;;;;4.60;1.80;;;;;;;24.02;39.03;99964.56;2245323;77;21030;-68
2022/06/01 09:51:10;;;;;;;2.00;1.72;;;;;;;23.46;39.22;99968.09;2255201;77;20994;-67
2022/06/01 09:54:23;;;;;;;5.25;1.98;;;;;;;23.08;38.44;99975.24;2257737;77;21175;-67
2022/06/01 09:57:30;;;;;;;3.45;1.77;;;;;;;23.08;38.69;99969.83;2252477;77;21009;-67
2022/06/01 10:07:31;;;;;;;3.47;2.02;;;;;;;23.99;37.72;99958.31;2247396;78;21548;-67
2022/06/01 10:10:34;;;;;;;3.22;1.25;;;;;;;23.82;37.13;99974.70;2245801;78;21047;-67
2022/06/01 10:13:40;;;;;;;1.50;1.40;;;;;;;23.75;37.14;99970.56;2243266;78;20993;-67
2022/06/01 10:16:58;;;;;;;1.27;1.20;;;;;;;23.40;36.16;99975.89;2240758;78;21140;-67
2022/06/01 10:20:30;;;;;;;2.62;1.30;;;;;;;22.98;36.51;99971.08;2240733;78;21009;-68
2022/06/01 10:24:01;;;;;;;1.80;1.70;;;;;;;22.82;36.78;99969.49;2241094;78;20966;-73
2022/06/01 10:27:04;;;;;;;2.10;1.40;;;;;;;22.79;36.75;99971.34;2241925;78;21013;-68
2022/06/01 10:30:14;;;;;;;4.30;1.60;;;;;;;22.65;36.74;99977.38;2241310;78;20943;-69
2022/06/01 10:33:33;;;;;;;1.65;1.55;;;;;;;22.46;36.25;99979.54;2247329;78;20955;-70
2022/06/01 10:36:45;;;;;;;1.70;1.50;;;;;;;22.37;37.13;99978.61;2242272;78;20983;-69
2022/06/01 10:40:01;;;;;;;2.47;1.50;;;;;;;22.36;37.07;99984.28;2241758;78;20959;-68
2022/06/01 10:43:26;;;;;;;3.08;1.50;;;;;;;22.24;37.00;99984.88;2226513;78;21280;-67
2022/06/01 10:46:49;;;;;;;2.77;1.35;;;;;;;22.23;37.34;99989.47;2244475;78;21085;-68
2022/06/01 10:50:09;;;;;;;1.70;1.60;;;;;;;22.07;37.43;99995.13;2243134;78;20990;-68
2022/06/01 10:53:55;;;;;;;2.20;1.45;;;;;;;22.05;38.09;99996.47;2245567;78;21011;-68
2022/06/01 10:56:56;;;;;;;3.22;1.92;;;;;;;22.04;38.10;99996.16;2244579;78;21010;-69
2022/06/01 10:59:59;;;;;;;4.45;2.95;;;;;;;21.79;38.31;100001.94;2249920;78;21009;-68
2022/06/01 11:03:15;;;;;;;5.65;2.15;;;;;;;21.66;38.61;100012.00;2241746;78;21034;-67
2022/06/01 11:06:39;;;;;;;3.27;2.37;;;;;;;21.41;39.50;100017.73;2239689;78;20974;-67
2022/06/01 11:10:04;;;;;;;5.37;2.00;;;;;;;20.80;40.77;100021.30;2240354;78;20959;-68
2022/06/01 11:13:23;;;;;;;4.25;2.12;;;;;;;20.30;42.20;100033.05;2243475;78;21041;-69
2022/06/01 11:16:42;;;;;;;4.15;2.08;;;;;;;19.82;44.01;100036.69;2239836;78;21010;-67
2022/06/01 11:20:11;;;;;;;4.15;2.67;;;;;;;19.29;45.82;100037.36;2238348;78;20979;-67
2022/06/01 11:23:47;;;;;;;6.17;4.17;;;;;;;18.99;47.05;100031.42;2233087;78;20986;-67
2022/06/01 11:27:26;;;;;;;6.22;3.95;;;;;;;18.80;47.73;100024.67;2233636;78;20963;-69
2022/06/01 11:30:38;;;;;;;5.62;3.30;;;;;;;18.81;48.44;100030.37;2240987;78;21275;-68
2022/06/01 11:34:05;;;;;;;5.55;3.58;;;;;;;19.10;48.75;100025.29;2239297;78;21445;-68
2022/06/01 11:37:29;;;;;;;2.72;2.50;;;;;;;19.60;48.65;100021.03;2240046;78;21743;-69
2022/06/01 11:40:54;;;;;;;2.85;2.05;;;;;;;20.20;47.95;100013.95;2221897;78;21911;-67
2022/06/01 11:44:03;;;;;;;3.52;1.92;;;;;;;20.90;47.93;100009.93;2240961;78;20990;-68
2022/06/01 11:47:15;;;;;;;3.12;2.17;;;;;;;21.30;47.11;100002.91;2246145;78;20955;-70
2022/06/01 11:50:26;;;;;;;3.65;1.87;;;;;;;21.78;46.77;100006.53;2248407;78;20998;-67
2022/06/01 11:53:35;;;;;;;3.35;1.65;;;;;;;22.20;45.38;100004.83;2237874;78;21073;-67
2022/06/01 11:57:01;;;;;;;2.07;1.87;;;;;;;22.61;45.31;100001.41;2243123;78;20994;-67
2022/06/01 12:00:27;;;;;;;2.12;1.62;;;;;;;22.87;44.15;99992.28;2243821;78;21044;-66
2022/06/01 12:03:44;;;;;;;3.00;2.00;;;;;;;22.68;43.53;100003.92;2245301;77;21065;-67
2022/06/01 12:07:00;;;;;;;1.85;1.67;;;;;;;22.58;44.25;100001.88;2246080;77;21467;-67
2022/06/01 12:10:22;;;;;;;2.10;1.60;;;;;;;22.38;44.11;100000.53;2233722;77;21017;-67
2022/06/01 12:13:31;;;;;;;3.77;1.75;;;;;;;22.36;43.91;100012.12;2251166;77;21009;-74
2022/06/01 12:16:35;;;;;;;4.85;1.95;;;;;;;22.36;44.18;100006.72;2219800;77;21315;-67
2022/06/01 12:19:36;;;;;;;2.33;2.08;;;;;;;22.33;44.11;100012.62;2251918;77;20958;-68
2022/06/01 12:29:39;;;;;;;;;;;;;;;22.33;44.50;100008.56;2210385;77;21013;-69
2022/06/01 12:33:07;;;;;;;2.72;2.15;;;;;;;22.54;44.71;100005.61;2246994;77;20458;-67
2022/06/01 12:36:10;;;;;;;4.35;1.77;;;;;;;22.80;44.39;100001.38;2253512;77;21112;-66
2022/06/01 12:39:41;;;;;;;3.00;1.70;;;;;;;23.20;44.17;99992.19;2249395;77;21087;-67
2022/06/01 12:42:55;;;;;;;2.35;1.72;;;;;;;23.43;43.70;99991.08;2255809;77;20981;-73
2022/06/01 12:45:56;;;;;;;2.12;1.60;;;;;;;23.55;42.39;99986.05;2242602;77;21064;-68
2022/06/01 12:49:26;;;;;;;4.58;1.50;;;;;;;23.76;42.29;99985.73;2220699;77;20950;-67
2022/06/01 12:52:27;;;;;;;3.95;1.92;;;;;;;23.91;41.69;99979.11;2240053;77;20982;-68
2022/06/01 12:55:29;;;;;;;3.70;1.60;;;;;;;23.95;41.14;99977.50;2248677;77;20986;-70
2022/06/01 12:58:30;;;;;;;1.85;1.40;;;;;;;23.95;40.68;99963.95;2251260;77;20946;-68
2022/06/01 13:01:32;;;;;;;3.40;1.60;;;;;;;23.99;40.70;99968.31;2246857;77;21417;-69
2022/06/01 13:04:34;;;;;;;4.75;1.90;;;;;;;24.05;40.35;99970.01;2231843;77;21007;-68
2022/06/01 13:07:40;;;;;;;3.75;1.70;;;;;;;23.96;38.95;99959.34;2242141;78;21045;-67
2022/06/01 13:10:41;;;;;;;2.70;1.50;;;;;;;23.93;39.22;99967.45;2243538;78;21026;-68
2022/06/01 13:13:44;;;;;;;2.65;1.30;;;;;;;23.96;38.81;99968.83;2240274;78;20981;-69
2022/06/01 13:16:51;;;;;;;3.15;1.90;;;;;;;23.69;37.83;99962.89;2235601;78;20993;-67
2022/06/01 13:20:04;;;;;;;4.83;2.02;;;;;;;23.32;38.27;99965.52;2241660;78;20998;-67
2022/06/01 13:23:16;;;;;;;2.77;1.60;;;;;;;23.16;38.67;99970.73;2245236;78;21043;-67
2022/06/01 13:26:40;;;;;;;4.42;1.75;;;;;;;22.94;38.26;99982.89;2237803;78;20969;-68
2022/06/01 13:29:44;;;;;;;3.15;1.82;;;;;;;22.70;38.57;99978.80;2237730;78;21003;-68
2022/06/01 13:32:53;;;;;;;2.10;1.85;;;;;;;22.52;38.30;99982.59;2239223;78;21025;-67
2022/06/01 13:36:02;;;;;;;1.98;1.50;;;;;;;22.38;38.23;99989.72;2246455;78;21011;-67
2022/06/01 13:39:11;;;;;;;2.50;1.80;;;;;;;22.25;38.49;99985.19;2239448;78;21112;-67
2022/06/01 13:42:35;;;;;;;5.97;1.82;;;;;;;22.18;39.07;99988.04;2235041;78;22383;-67
2022/06/01 13:45:56;;;;;;;1.87;1.50;;;;;;;22.22;39.10;99987.04;2239879;78;21036;-67
2022/06/01 13:49:01;;;;;;;3.17;1.72;;;;;;;22.38;39.42;99987.53;2243358;78;21113;-68
2022/06/01 13:52:05;;;;;;;5.22;1.90;;;;;;;22.65;39.27;99986.30;2241938;78;21065;-69
2022/06/01 13:55:29;;;;;;;2.95;1.60;;;;;;;22.63;38.53;99986.27;2239690;78;20935;-74
2022/06/01 13:58:41;;;;;;;3.60;1.35;;;;;;;22.43;38.69;99984.09;2244370;78;21033;-67
2022/06/01 14:01:54;;;;;;;3.10;1.40;;;;;;;22.43;38.06;99999.77;2236966;78;20994;-68
2022/06/01 14:05:20;;;;;;;2.83;1.62;;;;;;;22.19;38.03;100003.71;2251333;77;20955;-67
2022/06/01 14:08:34;;;;;;;2.20;1.32;;;;;;;21.94;37.36;100002.22;2258817;77;21097;-68
2022/06/01 14:11:35;;;;;;;3.42;1.20;;;;;;;21.62;37.47;100014.06;2258507;77;21021;-67
2022/06/01 14:14:40;;;;;;;4.50;1.42;;;;;;;21.42;37.98;100013.15;2259687;77;20956;-67
2022/06/01 14:17:45;;;;;;;4.42;1.60;;;;;;;21.25;37.54;100008.47;2256135;77;21491;-67
2022/06/01 14:20:48;;;;;;;4.25;1.52;;;;;;;21.00;37.51;100015.52;2255008;77;21371;-66
2022/06/01 14:23:50;;;;;;;3.02;1.87;;;;;;;20.72;37.87;100018.14;2258581;77;20950;-68
2022/06/01 14:30:15;;;;;;;3.25;1.98;;;;;;;20.50;38.60;100026.00;2251454;77;21566;-66
2022/06/01 14:33:16;;;;;;;1.77;1.30;;;;;;;20.41;38.70;100024.68;2255538;77;21554;-74
2022/06/01 14:36:20;;;;;;;2.65;1.30;;;;;;;20.35;38.97;100019.70;2258388;77;20981;-65
2022/06/01 14:39:21;;;;;;;1.90;0.95;;;;;;;20.22;39.10;100026.14;2261451;77;20985;-67
2022/06/01 14:42:25;;;;;;;2.35;1.82;;;;;;;20.13;39.44;100026.16;2258675;77;20985;-66
2022/06/01 14:45:26;;;;;;;3.05;2.10;;;;;;;20.11;39.35;100027.77;2255673;77;21024;-68
2022/06/01 14:48:28;;;;;;;4.05;1.60;;;;;;;20.04;39.54;100022.99;2254922;77;20942;-68
2022/06/01 14:51:34;;;;;;;4.65;1.62;;;;;;;19.98;39.56;100023.11;2253490;77;21048;-67
2022/06/01 14:54:39;;;;;;;3.65;1.40;;;;;;;19.98;39.69;100017.72;2253018;77;21445;-69
2022/06/01 14:57:40;;;;;;;4.97;1.40;;;;;;;20.07;40.29;100020.36;2262651;77;21421;-67
2022/06/01 15:00:43;;;;;;;2.35;1.25;;;;;;;20.20;40.01;100016.65;2262015;77;21049;-68
2022/06/01 15:03:49;;;;;;;1.20;1.10;;;;;;;20.29;40.24;100011.20;2252601;77;21517;-67
2022/06/01 15:06:51;;;;;;;1.27;1.17;;;;;;;20.39;40.24;100015.50;2251300;77;21020;-70
2022/06/01 15:09:52;;;;;;;2.60;1.22;;;;;;;20.41;40.22;100017.41;2251508;77;21477;-70
2022/06/01 15:12:56;;;;;;;2.50;1.65;;;;;;;20.58;40.36;100018.41;2250274;77;21434;-67